sensor_id;sensor_type;location;lat;lon;timestamp;pressure;altitude;pressure_sealevel;temperature;humidity
17311;BME280;8773;43.300;0.394;2023-05-20T00:00:54;100016.34;;;14.01;64.95
17311;BME280;8773;43.300;0.394;2023-05-20T00:03:23;100012.31;;;14.05;64.70
17311;BME280;8773;43.300;0.394;2023-05-20T00:05:51;100011.34;;;13.90;65.26
17311;BME280;8773;43.300;0.394;2023-05-20T00:08:20;100005.28;;;13.96;65.09
17311;BME280;8773;43.300;0.394;2023-05-20T00:10:47;99998.91;;;13.97;65.02
17311;BME280;8773;43.300;0.394;2023-05-20T00:13:15;99997.22;;;14.04;64.78
17311;BME280;8773;43.300;0.394;2023-05-20T00:15:42;100002.94;;;13.93;65.54
17311;BME280;8773;43.300;0.394;2023-05-20T00:18:13;99994.38;;;13.97;65.58
17311;BME280;8773;43.300;0.394;2023-05-20T00:20:40;99990.84;;;14.05;65.20
17311;BME280;8773;43.300;0.394;2023-05-20T00:23:08;99988.81;;;14.07;65.24
17311;BME280;8773;43.300;0.394;2023-05-20T00:25:36;99994.31;;;14.14;65.30
17311;BME280;8773;43.300;0.394;2023-05-20T00:28:05;99982.47;;;14.00;65.66
17311;BME280;8773;43.300;0.394;2023-05-20T00:30:32;99988.84;;;13.91;66.36
17311;BME280;8773;43.300;0.394;2023-05-20T00:33:00;99993.53;;;13.97;65.77
17311;BME280;8773;43.300;0.394;2023-05-20T00:35:27;99983.09;;;14.10;65.36
17311;BME280;8773;43.300;0.394;2023-05-20T00:37:55;99981.09;;;14.12;65.41
17311;BME280;8773;43.300;0.394;2023-05-20T00:40:22;99980.59;;;14.09;65.33
17311;BME280;8773;43.300;0.394;2023-05-20T00:42:51;99976.19;;;14.16;65.24
17311;BME280;8773;43.300;0.394;2023-05-20T00:45:19;99972.91;;;13.97;65.75
17311;BME280;8773;43.300;0.394;2023-05-20T00:47:46;99973.59;;;13.91;66.04
17311;BME280;8773;43.300;0.394;2023-05-20T00:50:16;99970.38;;;13.96;65.88
17311;BME280;8773;43.300;0.394;2023-05-20T00:52:44;99965.53;;;13.91;66.10
17311;BME280;8773;43.300;0.394;2023-05-20T00:55:11;99960.50;;;13.96;66.26
17311;BME280;8773;43.300;0.394;2023-05-20T00:57:39;99963.84;;;13.90;66.30
17311;BME280;8773;43.300;0.394;2023-05-20T01:00:09;99956.31;;;13.78;66.75
17311;BME280;8773;43.300;0.394;2023-05-20T01:02:39;99956.16;;;13.79;66.98
17311;BME280;8773;43.300;0.394;2023-05-20T01:05:07;99955.66;;;13.84;66.67
17311;BME280;8773;43.300;0.394;2023-05-20T01:07:34;99951.59;;;13.96;66.42
17311;BME280;8773;43.300;0.394;2023-05-20T01:10:02;99949.56;;;14.06;66.33
17311;BME280;8773;43.300;0.394;2023-05-20T01:12:34;99945.41;;;13.87;66.95
17311;BME280;8773;43.300;0.394;2023-05-20T01:15:06;99930.78;;;13.98;66.55
17311;BME280;8773;43.300;0.394;2023-05-20T01:17:37;99936.19;;;13.90;66.62
17311;BME280;8773;43.300;0.394;2023-05-20T01:20:07;99926.28;;;13.90;66.97
17311;BME280;8773;43.300;0.394;2023-05-20T01:22:37;99921.72;;;13.99;66.45
17311;BME280;8773;43.300;0.394;2023-05-20T01:25:07;99919.75;;;13.85;67.52
17311;BME280;8773;43.300;0.394;2023-05-20T01:27:35;99915.56;;;13.74;67.83
17311;BME280;8773;43.300;0.394;2023-05-20T01:30:03;99924.13;;;13.78;67.75
17311;BME280;8773;43.300;0.394;2023-05-20T01:32:33;99918.75;;;13.86;67.49
17311;BME280;8773;43.300;0.394;2023-05-20T01:35:07;99914.91;;;13.80;67.68
17311;BME280;8773;43.300;0.394;2023-05-20T01:37:39;99915.69;;;13.97;67.38
17311;BME280;8773;43.300;0.394;2023-05-20T01:40:08;99907.97;;;13.94;67.55
17311;BME280;8773;43.300;0.394;2023-05-20T01:42:39;99905.31;;;13.86;67.46
17311;BME280;8773;43.300;0.394;2023-05-20T01:45:08;99896.91;;;13.97;67.38
17311;BME280;8773;43.300;0.394;2023-05-20T01:47:36;99895.91;;;13.90;67.90
17311;BME280;8773;43.300;0.394;2023-05-20T01:50:05;99891.22;;;13.84;67.92
17311;BME280;8773;43.300;0.394;2023-05-20T01:52:32;99901.63;;;13.87;67.73
17311;BME280;8773;43.300;0.394;2023-05-20T01:55:01;99895.88;;;13.98;67.35
17311;BME280;8773;43.300;0.394;2023-05-20T01:57:29;99896.22;;;14.03;67.33
17311;BME280;8773;43.300;0.394;2023-05-20T01:59:56;99891.56;;;13.89;67.76
17311;BME280;8773;43.300;0.394;2023-05-20T02:02:24;99895.28;;;13.80;68.14
17311;BME280;8773;43.300;0.394;2023-05-20T02:04:54;99890.75;;;13.80;68.08
17311;BME280;8773;43.300;0.394;2023-05-20T02:07:21;99883.72;;;13.71;68.59
17311;BME280;8773;43.300;0.394;2023-05-20T02:09:49;99880.56;;;13.67;68.64
17311;BME280;8773;43.300;0.394;2023-05-20T02:12:25;99874.97;;;13.85;68.08
17311;BME280;8773;43.300;0.394;2023-05-20T02:14:52;99875.97;;;13.84;68.12
17311;BME280;8773;43.300;0.394;2023-05-20T02:17:20;99878.81;;;13.91;67.51
17311;BME280;8773;43.300;0.394;2023-05-20T02:19:47;99873.44;;;13.91;67.22
17311;BME280;8773;43.300;0.394;2023-05-20T02:22:14;99878.81;;;13.91;67.21
17311;BME280;8773;43.300;0.394;2023-05-20T02:24:51;99875.25;;;13.98;66.89
17311;BME280;8773;43.300;0.394;2023-05-20T02:27:18;99872.00;;;14.11;66.51
17311;BME280;8773;43.300;0.394;2023-05-20T02:29:47;99864.59;;;14.13;66.09
17311;BME280;8773;43.300;0.394;2023-05-20T02:32:14;99871.22;;;14.02;66.63
17311;BME280;8773;43.300;0.394;2023-05-20T02:34:42;99862.22;;;14.18;66.43
17311;BME280;8773;43.300;0.394;2023-05-20T02:37:09;99854.13;;;14.26;66.12
17311;BME280;8773;43.300;0.394;2023-05-20T02:39:36;99861.34;;;14.26;66.05
17311;BME280;8773;43.300;0.394;2023-05-20T02:42:04;99853.75;;;14.29;66.03
17311;BME280;8773;43.300;0.394;2023-05-20T02:44:34;99852.94;;;14.29;65.89
17311;BME280;8773;43.300;0.394;2023-05-20T02:47:03;99849.00;;;14.39;65.56
17311;BME280;8773;43.300;0.394;2023-05-20T02:49:30;99846.53;;;14.30;65.53
17311;BME280;8773;43.300;0.394;2023-05-20T02:51:58;99843.50;;;14.33;65.83
17311;BME280;8773;43.300;0.394;2023-05-20T02:54:25;99842.00;;;14.30;65.77
17311;BME280;8773;43.300;0.394;2023-05-20T02:56:53;99849.72;;;14.33;65.74
17311;BME280;8773;43.300;0.394;2023-05-20T02:59:20;99833.91;;;14.38;64.95
17311;BME280;8773;43.300;0.394;2023-05-20T03:01:48;99842.81;;;14.39;64.94
17311;BME280;8773;43.300;0.394;2023-05-20T03:04:17;99846.00;;;14.34;65.07
17311;BME280;8773;43.300;0.394;2023-05-20T03:06:47;99839.59;;;14.44;65.30
17311;BME280;8773;43.300;0.394;2023-05-20T03:09:14;99835.16;;;14.51;64.75
17311;BME280;8773;43.300;0.394;2023-05-20T03:11:41;99829.81;;;14.51;65.18
17311;BME280;8773;43.300;0.394;2023-05-20T03:14:09;99820.16;;;14.56;64.14
17311;BME280;8773;43.300;0.394;2023-05-20T03:16:36;99833.81;;;14.55;64.42
17311;BME280;8773;43.300;0.394;2023-05-20T03:19:04;99819.06;;;14.51;64.09
17311;BME280;8773;43.300;0.394;2023-05-20T03:21:32;99817.47;;;14.33;64.45
17311;BME280;8773;43.300;0.394;2023-05-20T03:24:04;99813.47;;;14.29;64.83
17311;BME280;8773;43.300;0.394;2023-05-20T03:26:31;99808.16;;;14.21;65.39
17311;BME280;8773;43.300;0.394;2023-05-20T03:28:59;99812.09;;;14.11;65.94
17311;BME280;8773;43.300;0.394;2023-05-20T03:31:26;99801.41;;;14.02;65.66
17311;BME280;8773;43.300;0.394;2023-05-20T03:33:53;99792.47;;;14.10;65.91
17311;BME280;8773;43.300;0.394;2023-05-20T03:36:21;99798.19;;;14.07;65.79
17311;BME280;8773;43.300;0.394;2023-05-20T03:38:50;99792.03;;;13.98;66.42
17311;BME280;8773;43.300;0.394;2023-05-20T03:41:17;99794.22;;;13.95;66.11
17311;BME280;8773;43.300;0.394;2023-05-20T03:43:47;99789.31;;;14.06;65.54
17311;BME280;8773;43.300;0.394;2023-05-20T03:46:14;99788.28;;;14.08;65.65
17311;BME280;8773;43.300;0.394;2023-05-20T03:48:41;99790.06;;;14.15;65.82
17311;BME280;8773;43.300;0.394;2023-05-20T03:51:09;99790.31;;;14.28;65.25
17311;BME280;8773;43.300;0.394;2023-05-20T03:53:36;99788.59;;;14.35;65.13
17311;BME280;8773;43.300;0.394;2023-05-20T03:56:05;99794.06;;;14.19;65.21
17311;BME280;8773;43.300;0.394;2023-05-20T03:58:33;99790.66;;;14.25;65.17
17311;BME280;8773;43.300;0.394;2023-05-20T04:01:00;99785.91;;;14.13;65.13
17311;BME280;8773;43.300;0.394;2023-05-20T04:03:27;99792.22;;;14.20;65.37
17311;BME280;8773;43.300;0.394;2023-05-20T04:05:55;99783.97;;;14.21;65.28
17311;BME280;8773;43.300;0.394;2023-05-20T04:08:22;99780.47;;;14.21;64.88
17311;BME280;8773;43.300;0.394;2023-05-20T04:10:54;99779.97;;;14.17;64.98
17311;BME280;8773;43.300;0.394;2023-05-20T04:13:24;99774.97;;;14.14;64.98
17311;BME280;8773;43.300;0.394;2023-05-20T04:15:52;99771.28;;;14.15;64.23
17311;BME280;8773;43.300;0.394;2023-05-20T04:18:19;99777.41;;;14.01;64.73
17311;BME280;8773;43.300;0.394;2023-05-20T04:20:47;99773.28;;;13.90;65.37
17311;BME280;8773;43.300;0.394;2023-05-20T04:23:14;99762.03;;;13.95;65.35
17311;BME280;8773;43.300;0.394;2023-05-20T04:25:41;99766.25;;;13.89;65.42
17311;BME280;8773;43.300;0.394;2023-05-20T04:28:09;99766.25;;;13.89;65.50
17311;BME280;8773;43.300;0.394;2023-05-20T04:30:38;99766.06;;;13.91;65.47
17311;BME280;8773;43.300;0.394;2023-05-20T04:33:05;99761.72;;;13.90;65.60
17311;BME280;8773;43.300;0.394;2023-05-20T04:35:33;99764.66;;;13.72;65.93
17311;BME280;8773;43.300;0.394;2023-05-20T04:38:03;99765.19;;;13.59;66.08
17311;BME280;8773;43.300;0.394;2023-05-20T04:40:31;99765.69;;;13.63;66.20
17311;BME280;8773;43.300;0.394;2023-05-20T04:43:00;99767.88;;;13.67;66.26
17311;BME280;8773;43.300;0.394;2023-05-20T04:45:28;99760.59;;;13.76;65.89
17311;BME280;8773;43.300;0.394;2023-05-20T04:47:56;99763.47;;;13.74;66.39
17311;BME280;8773;43.300;0.394;2023-05-20T04:50:24;99757.56;;;13.79;66.56
17311;BME280;8773;43.300;0.394;2023-05-20T04:52:51;99767.91;;;13.51;66.95
17311;BME280;8773;43.300;0.394;2023-05-20T04:55:19;99767.19;;;13.65;66.65
17311;BME280;8773;43.300;0.394;2023-05-20T04:57:46;99764.78;;;13.79;66.37
17311;BME280;8773;43.300;0.394;2023-05-20T05:00:14;99771.38;;;13.21;67.76
17311;BME280;8773;43.300;0.394;2023-05-20T05:02:41;99771.09;;;12.99;69.07
17311;BME280;8773;43.300;0.394;2023-05-20T05:05:10;99768.72;;;13.13;68.66
17311;BME280;8773;43.300;0.394;2023-05-20T05:07:37;99763.59;;;13.42;67.89
17311;BME280;8773;43.300;0.394;2023-05-20T05:10:05;99762.50;;;13.67;67.13
17311;BME280;8773;43.300;0.394;2023-05-20T05:12:33;99758.44;;;13.71;66.46
17311;BME280;8773;43.300;0.394;2023-05-20T05:15:00;99771.91;;;13.55;66.76
17311;BME280;8773;43.300;0.394;2023-05-20T05:17:28;99763.34;;;13.68;66.61
17311;BME280;8773;43.300;0.394;2023-05-20T05:19:55;99755.13;;;13.69;66.37
17311;BME280;8773;43.300;0.394;2023-05-20T05:22:27;99761.78;;;13.73;66.38
17311;BME280;8773;43.300;0.394;2023-05-20T05:25:15;99754.06;;;13.79;66.34
17311;BME280;8773;43.300;0.394;2023-05-20T05:27:48;99756.78;;;13.70;66.35
17311;BME280;8773;43.300;0.394;2023-05-20T05:30:16;99764.75;;;13.87;65.96
17311;BME280;8773;43.300;0.394;2023-05-20T05:33:02;99753.56;;;13.75;65.83
17311;BME280;8773;43.300;0.394;2023-05-20T05:35:49;99750.25;;;13.65;66.63
17311;BME280;8773;43.300;0.394;2023-05-20T05:38:36;99757.25;;;13.74;66.57
17311;BME280;8773;43.300;0.394;2023-05-20T05:41:22;99754.81;;;13.56;66.71
17311;BME280;8773;43.300;0.394;2023-05-20T05:44:08;99754.84;;;13.48;67.08
17311;BME280;8773;43.300;0.394;2023-05-20T05:46:54;99761.84;;;13.57;66.89
17311;BME280;8773;43.300;0.394;2023-05-20T05:49:40;99752.72;;;13.74;66.47
17311;BME280;8773;43.300;0.394;2023-05-20T05:52:07;99753.94;;;13.64;66.59
17311;BME280;8773;43.300;0.394;2023-05-20T05:54:36;99753.22;;;13.78;66.63
17311;BME280;8773;43.300;0.394;2023-05-20T05:57:04;99757.97;;;13.99;66.05
17311;BME280;8773;43.300;0.394;2023-05-20T05:59:32;99755.94;;;14.01;65.77
17311;BME280;8773;43.300;0.394;2023-05-20T06:02:00;99749.44;;;13.95;66.15
17311;BME280;8773;43.300;0.394;2023-05-20T06:04:27;99758.38;;;13.88;66.05
17311;BME280;8773;43.300;0.394;2023-05-20T06:06:54;99754.72;;;13.81;66.69
17311;BME280;8773;43.300;0.394;2023-05-20T06:09:22;99747.44;;;13.66;66.81
17311;BME280;8773;43.300;0.394;2023-05-20T06:11:51;99749.66;;;13.47;67.57
17311;BME280;8773;43.300;0.394;2023-05-20T06:14:18;99746.44;;;13.51;67.59
17311;BME280;8773;43.300;0.394;2023-05-20T06:16:46;99754.47;;;13.59;67.38
17311;BME280;8773;43.300;0.394;2023-05-20T06:19:13;99746.22;;;14.00;66.74
17311;BME280;8773;43.300;0.394;2023-05-20T06:21:43;99750.81;;;14.14;66.17
17311;BME280;8773;43.300;0.394;2023-05-20T06:24:13;99741.47;;;14.10;65.72
17311;BME280;8773;43.300;0.394;2023-05-20T06:26:41;99749.69;;;13.78;66.58
17311;BME280;8773;43.300;0.394;2023-05-20T06:29:09;99747.41;;;13.97;66.69
17311;BME280;8773;43.300;0.394;2023-05-20T06:31:39;99740.16;;;13.75;66.63
17311;BME280;8773;43.300;0.394;2023-05-20T06:34:12;99743.03;;;13.65;67.30
17311;BME280;8773;43.300;0.394;2023-05-20T06:36:40;99749.13;;;13.51;67.73
17311;BME280;8773;43.300;0.394;2023-05-20T06:39:33;99747.69;;;13.32;68.39
17311;BME280;8773;43.300;0.394;2023-05-20T06:42:27;99745.34;;;13.77;67.54
17311;BME280;8773;43.300;0.394;2023-05-20T06:44:56;99747.75;;;14.17;66.64
17311;BME280;8773;43.300;0.394;2023-05-20T06:47:41;99748.00;;;14.30;65.73
17311;BME280;8773;43.300;0.394;2023-05-20T06:50:27;99749.66;;;14.54;65.52
17311;BME280;8773;43.300;0.394;2023-05-20T06:53:13;99751.31;;;14.78;64.37
17311;BME280;8773;43.300;0.394;2023-05-20T06:55:41;99755.25;;;14.90;64.05
17311;BME280;8773;43.300;0.394;2023-05-20T06:58:08;99750.88;;;14.89;63.77
17311;BME280;8773;43.300;0.394;2023-05-20T07:00:37;99757.06;;;14.75;64.30
17311;BME280;8773;43.300;0.394;2023-05-20T07:03:13;99756.69;;;14.78;63.90
17311;BME280;8773;43.300;0.394;2023-05-20T07:05:44;99760.44;;;14.92;64.16
17311;BME280;8773;43.300;0.394;2023-05-20T07:08:11;99765.06;;;15.13;63.46
17311;BME280;8773;43.300;0.394;2023-05-20T07:10:38;99760.25;;;15.23;63.43
17311;BME280;8773;43.300;0.394;2023-05-20T07:13:06;99763.97;;;15.22;63.26
17311;BME280;8773;43.300;0.394;2023-05-20T07:15:34;99762.28;;;14.91;63.08
17311;BME280;8773;43.300;0.394;2023-05-20T07:18:03;99765.53;;;15.01;64.00
17311;BME280;8773;43.300;0.394;2023-05-20T07:20:30;99771.16;;;14.77;63.76
17311;BME280;8773;43.300;0.394;2023-05-20T07:22:58;99773.28;;;14.59;64.40
17311;BME280;8773;43.300;0.394;2023-05-20T07:25:26;99770.78;;;14.80;65.14
17311;BME280;8773;43.300;0.394;2023-05-20T07:27:53;99771.38;;;15.05;64.28
17311;BME280;8773;43.300;0.394;2023-05-20T07:30:20;99770.00;;;14.94;63.52
17311;BME280;8773;43.300;0.394;2023-05-20T07:32:48;99766.63;;;15.07;63.32
17311;BME280;8773;43.300;0.394;2023-05-20T07:35:17;99767.69;;;15.35;62.48
17311;BME280;8773;43.300;0.394;2023-05-20T07:37:44;99765.34;;;15.47;62.45
17311;BME280;8773;43.300;0.394;2023-05-20T07:40:12;99771.94;;;15.30;62.03
17311;BME280;8773;43.300;0.394;2023-05-20T07:42:45;99768.88;;;15.48;62.49
17311;BME280;8773;43.300;0.394;2023-05-20T07:45:21;99766.50;;;15.89;61.35
17311;BME280;8773;43.300;0.394;2023-05-20T07:47:48;99764.44;;;16.05;60.29
17311;BME280;8773;43.300;0.394;2023-05-20T07:50:17;99761.41;;;16.36;60.26
17311;BME280;8773;43.300;0.394;2023-05-20T07:52:47;99764.31;;;16.56;59.80
17311;BME280;8773;43.300;0.394;2023-05-20T07:55:29;99757.84;;;16.72;59.12
17311;BME280;8773;43.300;0.394;2023-05-20T07:58:16;99756.94;;;16.65;59.07
17311;BME280;8773;43.300;0.394;2023-05-20T08:01:19;99755.88;;;16.87;59.18
17311;BME280;8773;43.300;0.394;2023-05-20T08:03:47;99755.38;;;17.05;57.89
17311;BME280;8773;43.300;0.394;2023-05-20T08:06:16;99748.19;;;17.19;57.75
17311;BME280;8773;43.300;0.394;2023-05-20T08:08:46;99746.66;;;17.37;57.09
17311;BME280;8773;43.300;0.394;2023-05-20T08:11:36;99743.81;;;17.52;57.25
17311;BME280;8773;43.300;0.394;2023-05-20T08:14:03;99740.25;;;17.45;56.67
17311;BME280;8773;43.300;0.394;2023-05-20T08:16:34;99742.75;;;17.47;57.57
17311;BME280;8773;43.300;0.394;2023-05-20T08:19:02;99740.53;;;17.57;57.43
17311;BME280;8773;43.300;0.394;2023-05-20T08:21:31;99746.09;;;17.49;57.13
17311;BME280;8773;43.300;0.394;2023-05-20T08:23:58;99749.75;;;17.76;57.18
17311;BME280;8773;43.300;0.394;2023-05-20T08:26:26;99746.72;;;17.98;55.88
17311;BME280;8773;43.300;0.394;2023-05-20T08:28:58;99747.63;;;17.64;56.36
17311;BME280;8773;43.300;0.394;2023-05-20T08:31:26;99748.44;;;17.24;57.33
17311;BME280;8773;43.300;0.394;2023-05-20T08:33:53;99754.34;;;17.06;58.39
17311;BME280;8773;43.300;0.394;2023-05-20T08:36:21;99742.22;;;17.64;57.48
17311;BME280;8773;43.300;0.394;2023-05-20T08:38:49;99743.78;;;17.87;56.47
17311;BME280;8773;43.300;0.394;2023-05-20T08:41:17;99736.56;;;18.20;55.96
17311;BME280;8773;43.300;0.394;2023-05-20T08:43:48;99739.28;;;18.20;55.70
17311;BME280;8773;43.300;0.394;2023-05-20T08:46:17;99739.06;;;18.22;54.96
17311;BME280;8773;43.300;0.394;2023-05-20T08:48:45;99735.97;;;18.31;55.46
17311;BME280;8773;43.300;0.394;2023-05-20T08:51:17;99738.72;;;18.71;54.27
17311;BME280;8773;43.300;0.394;2023-05-20T08:53:50;99740.13;;;19.13;53.65
17311;BME280;8773;43.300;0.394;2023-05-20T08:56:39;99727.41;;;19.20;53.58
17311;BME280;8773;43.300;0.394;2023-05-20T08:59:07;99734.31;;;19.03;52.79
17311;BME280;8773;43.300;0.394;2023-05-20T09:01:40;99736.38;;;18.94;53.07
17311;BME280;8773;43.300;0.394;2023-05-20T09:04:07;99731.19;;;19.06;53.23
17311;BME280;8773;43.300;0.394;2023-05-20T09:06:42;99733.88;;;19.06;52.72
17311;BME280;8773;43.300;0.394;2023-05-20T09:09:11;99734.50;;;18.95;53.14
17311;BME280;8773;43.300;0.394;2023-05-20T09:11:38;99730.75;;;19.16;52.89
17311;BME280;8773;43.300;0.394;2023-05-20T09:14:06;99727.31;;;19.53;52.07
17311;BME280;8773;43.300;0.394;2023-05-20T09:16:35;99723.44;;;19.81;52.20
17311;BME280;8773;43.300;0.394;2023-05-20T09:19:04;99722.16;;;19.83;50.66
17311;BME280;8773;43.300;0.394;2023-05-20T09:21:34;99719.25;;;19.85;51.14
17311;BME280;8773;43.300;0.394;2023-05-20T09:24:02;99724.81;;;19.96;51.00
17311;BME280;8773;43.300;0.394;2023-05-20T09:26:30;99725.41;;;20.05;50.19
17311;BME280;8773;43.300;0.394;2023-05-20T09:28:58;99731.25;;;19.64;50.93
17311;BME280;8773;43.300;0.394;2023-05-20T09:31:26;99730.22;;;19.58;51.14
17311;BME280;8773;43.300;0.394;2023-05-20T09:33:54;99724.00;;;19.51;50.25
17311;BME280;8773;43.300;0.394;2023-05-20T09:36:22;99725.38;;;19.74;50.61
17311;BME280;8773;43.300;0.394;2023-05-20T09:38:51;99731.72;;;19.41;50.81
17311;BME280;8773;43.300;0.394;2023-05-20T09:41:21;99724.38;;;19.61;50.85
17311;BME280;8773;43.300;0.394;2023-05-20T09:43:52;99720.03;;;19.54;50.25
17311;BME280;8773;43.300;0.394;2023-05-20T09:46:20;99717.56;;;19.46;50.88
17311;BME280;8773;43.300;0.394;2023-05-20T09:48:48;99722.75;;;19.47;50.32
17311;BME280;8773;43.300;0.394;2023-05-20T09:51:16;99714.81;;;19.52;51.16
17311;BME280;8773;43.300;0.394;2023-05-20T09:53:44;99717.66;;;19.71;50.37
17311;BME280;8773;43.300;0.394;2023-05-20T09:56:14;99722.78;;;19.41;51.51
17311;BME280;8773;43.300;0.394;2023-05-20T09:58:43;99715.22;;;19.56;52.30
17311;BME280;8773;43.300;0.394;2023-05-20T10:01:30;99708.59;;;19.90;50.63
17311;BME280;8773;43.300;0.394;2023-05-20T10:03:58;99708.34;;;20.29;50.09
17311;BME280;8773;43.300;0.394;2023-05-20T10:06:41;99709.28;;;19.79;49.88
17311;BME280;8773;43.300;0.394;2023-05-20T10:09:36;99696.88;;;19.64;49.65
17311;BME280;8773;43.300;0.394;2023-05-20T10:12:18;99705.81;;;19.65;49.49
17311;BME280;8773;43.300;0.394;2023-05-20T10:14:56;99707.75;;;19.51;50.90
17311;BME280;8773;43.300;0.394;2023-05-20T10:17:36;99694.16;;;19.64;49.34
17311;BME280;8773;43.300;0.394;2023-05-20T10:20:06;99703.13;;;18.87;51.42
17311;BME280;8773;43.300;0.394;2023-05-20T10:22:34;99697.06;;;18.92;49.92
17311;BME280;8773;43.300;0.394;2023-05-20T10:27:41;99689.44;;;19.40;50.30
17311;BME280;8773;43.300;0.394;2023-05-20T10:30:14;99691.31;;;19.40;49.87
17311;BME280;8773;43.300;0.394;2023-05-20T10:32:52;99690.97;;;19.23;51.71
17311;BME280;8773;43.300;0.394;2023-05-20T10:35:22;99689.53;;;19.72;50.56
17311;BME280;8773;43.300;0.394;2023-05-20T10:37:50;99693.81;;;19.86;49.26
17311;BME280;8773;43.300;0.394;2023-05-20T10:40:19;99687.50;;;19.98;49.49
17311;BME280;8773;43.300;0.394;2023-05-20T10:42:48;99688.28;;;20.06;49.61
17311;BME280;8773;43.300;0.394;2023-05-20T10:45:27;99682.44;;;20.09;48.67
17311;BME280;8773;43.300;0.394;2023-05-20T10:48:25;99680.25;;;19.86;48.47
17311;BME280;8773;43.300;0.394;2023-05-20T10:50:57;99682.19;;;19.79;48.95
17311;BME280;8773;43.300;0.394;2023-05-20T10:53:26;99678.53;;;19.60;48.47
17311;BME280;8773;43.300;0.394;2023-05-20T10:56:01;99669.19;;;19.56;49.05
17311;BME280;8773;43.300;0.394;2023-05-20T10:58:36;99675.50;;;19.43;48.27
17311;BME280;8773;43.300;0.394;2023-05-20T11:01:06;99666.25;;;19.57;48.29
17311;BME280;8773;43.300;0.394;2023-05-20T11:03:37;99658.25;;;19.76;47.26
17311;BME280;8773;43.300;0.394;2023-05-20T11:06:11;99650.94;;;19.76;48.24
17311;BME280;8773;43.300;0.394;2023-05-20T11:08:39;99647.34;;;19.51;48.81
17311;BME280;8773;43.300;0.394;2023-05-20T11:11:07;99644.03;;;19.42;49.29
17311;BME280;8773;43.300;0.394;2023-05-20T11:13:35;99638.94;;;19.65;47.97
17311;BME280;8773;43.300;0.394;2023-05-20T11:16:04;99641.03;;;19.63;46.43
17311;BME280;8773;43.300;0.394;2023-05-20T11:18:33;99636.53;;;19.44;47.50
17311;BME280;8773;43.300;0.394;2023-05-20T11:21:03;99631.50;;;19.86;47.13
17311;BME280;8773;43.300;0.394;2023-05-20T11:23:31;99635.59;;;20.26;45.85
17311;BME280;8773;43.300;0.394;2023-05-20T11:26:01;99641.50;;;20.42;44.44
17311;BME280;8773;43.300;0.394;2023-05-20T11:28:55;99635.25;;;20.41;42.01
17311;BME280;8773;43.300;0.394;2023-05-20T11:31:27;99634.59;;;20.46;39.37
17311;BME280;8773;43.300;0.394;2023-05-20T11:33:58;99635.00;;;20.67;38.42
17311;BME280;8773;43.300;0.394;2023-05-20T11:36:27;99622.84;;;20.95;37.45
17311;BME280;8773;43.300;0.394;2023-05-20T11:38:56;99622.81;;;21.13;40.78
17311;BME280;8773;43.300;0.394;2023-05-20T11:41:24;99606.16;;;21.28;42.20
17311;BME280;8773;43.300;0.394;2023-05-20T11:43:56;99622.53;;;21.51;40.91
17311;BME280;8773;43.300;0.394;2023-05-20T11:46:24;99613.47;;;21.76;40.13
17311;BME280;8773;43.300;0.394;2023-05-20T11:48:52;99620.03;;;22.10;39.18
17311;BME280;8773;43.300;0.394;2023-05-20T11:51:22;99606.13;;;21.76;38.94
17311;BME280;8773;43.300;0.394;2023-05-20T11:53:58;99600.09;;;22.27;38.76
17311;BME280;8773;43.300;0.394;2023-05-20T11:56:28;99601.28;;;22.31;37.39
17311;BME280;8773;43.300;0.394;2023-05-20T11:58:57;99599.97;;;21.69;37.36
17311;BME280;8773;43.300;0.394;2023-05-20T12:01:25;99596.31;;;21.45;39.60
17311;BME280;8773;43.300;0.394;2023-05-20T12:03:53;99592.72;;;21.63;39.14
17311;BME280;8773;43.300;0.394;2023-05-20T12:06:20;99579.94;;;22.05;39.36
17311;BME280;8773;43.300;0.394;2023-05-20T12:08:48;99582.00;;;22.33;38.84
17311;BME280;8773;43.300;0.394;2023-05-20T12:11:16;99577.84;;;22.77;37.19
17311;BME280;8773;43.300;0.394;2023-05-20T12:13:44;99562.47;;;22.48;36.92
17311;BME280;8773;43.300;0.394;2023-05-20T12:16:27;99578.84;;;21.83;36.95
17311;BME280;8773;43.300;0.394;2023-05-20T12:18:54;99572.38;;;21.84;37.44
17311;BME280;8773;43.300;0.394;2023-05-20T12:21:25;99565.31;;;22.29;36.12
17311;BME280;8773;43.300;0.394;2023-05-20T12:23:52;99563.53;;;22.12;36.22
17311;BME280;8773;43.300;0.394;2023-05-20T12:26:21;99566.16;;;22.30;37.04
17311;BME280;8773;43.300;0.394;2023-05-20T12:29:07;99561.75;;;22.64;35.92
17311;BME280;8773;43.300;0.394;2023-05-20T12:31:59;99555.28;;;23.17;35.14
17311;BME280;8773;43.300;0.394;2023-05-20T12:34:27;99558.00;;;22.53;35.98
17311;BME280;8773;43.300;0.394;2023-05-20T12:36:54;99557.81;;;22.83;35.86
17311;BME280;8773;43.300;0.394;2023-05-20T12:39:22;99554.13;;;22.89;33.95
17311;BME280;8773;43.300;0.394;2023-05-20T12:41:50;99549.22;;;22.51;35.16
17311;BME280;8773;43.300;0.394;2023-05-20T12:44:18;99548.75;;;22.43;35.73
17311;BME280;8773;43.300;0.394;2023-05-20T12:46:46;99554.91;;;22.73;34.23
17311;BME280;8773;43.300;0.394;2023-05-20T12:49:13;99551.50;;;22.94;33.04
17311;BME280;8773;43.300;0.394;2023-05-20T12:51:41;99540.00;;;23.04;33.04
17311;BME280;8773;43.300;0.394;2023-05-20T12:54:08;99538.84;;;22.88;32.06
17311;BME280;8773;43.300;0.394;2023-05-20T12:56:36;99537.91;;;22.94;32.85
17311;BME280;8773;43.300;0.394;2023-05-20T12:59:05;99535.63;;;23.15;31.58
17311;BME280;8773;43.300;0.394;2023-05-20T13:01:32;99531.06;;;22.80;32.88
17311;BME280;8773;43.300;0.394;2023-05-20T13:04:00;99539.03;;;21.47;34.83
17311;BME280;8773;43.300;0.394;2023-05-20T13:06:27;99542.72;;;21.22;35.04
17311;BME280;8773;43.300;0.394;2023-05-20T13:08:55;99549.13;;;21.28;36.39
17311;BME280;8773;43.300;0.394;2023-05-20T13:11:22;99541.66;;;21.23;37.75
17311;BME280;8773;43.300;0.394;2023-05-20T13:13:49;99541.28;;;21.20;38.23
17311;BME280;8773;43.300;0.394;2023-05-20T13:16:18;99555.22;;;20.93;38.10
17311;BME280;8773;43.300;0.394;2023-05-20T13:18:46;99549.72;;;20.20;40.27
17311;BME280;8773;43.300;0.394;2023-05-20T13:21:13;99552.16;;;20.28;39.92
17311;BME280;8773;43.300;0.394;2023-05-20T13:23:41;99557.50;;;20.35;38.68
17311;BME280;8773;43.300;0.394;2023-05-20T13:26:08;99560.06;;;20.05;38.89
17311;BME280;8773;43.300;0.394;2023-05-20T13:28:36;99558.31;;;19.61;40.67